createdAt,value
2023-09-28T00:01:19.489Z,101861.70
2023-09-28T00:04:06.873Z,101859.92
2023-09-28T00:06:52.527Z,101856.91
2023-09-28T00:09:38.273Z,101857.67
2023-09-28T00:12:23.821Z,101857.48
2023-09-28T00:15:10.669Z,101862.42
2023-09-28T00:17:56.410Z,101865.77
2023-09-28T00:20:42.170Z,101868.41
2023-09-28T00:23:27.968Z,101872.77
2023-09-28T00:26:13.680Z,101871.09
2023-09-28T00:29:00.989Z,101870.98
2023-09-28T00:31:46.574Z,101872.13
2023-09-28T00:34:32.439Z,101871.81
2023-09-28T00:37:18.156Z,101872.77
2023-09-28T00:40:17.598Z,101872.13
2023-09-28T00:43:04.675Z,101873.98
2023-09-28T00:45:50.260Z,101876.90
2023-09-28T00:48:43.111Z,101880.23
2023-09-28T00:51:29.523Z,101879.86
2023-09-28T00:54:14.996Z,101878.95
2023-09-28T00:57:01.200Z,101883.82
2023-09-28T00:59:46.619Z,101879.38
2023-09-28T01:02:32.214Z,101877.48
2023-09-28T01:05:19.325Z,101875.03
2023-09-28T01:08:19.298Z,101873.69
2023-09-28T01:11:10.423Z,101870.59
2023-09-28T01:13:56.496Z,101872.04
2023-09-28T01:16:43.248Z,101873.63
2023-09-28T01:19:30.551Z,101873.27
2023-09-28T01:22:16.497Z,101872.73
2023-09-28T01:25:04.492Z,101870.77
2023-09-28T01:27:51.253Z,101871.67
2023-09-28T01:30:36.885Z,101871.33
2023-09-28T01:33:22.609Z,101871.17
2023-09-28T01:36:08.536Z,101875.89
2023-09-28T01:39:08.152Z,101875.98
2023-09-28T01:41:53.932Z,101875.49
2023-09-28T01:44:39.292Z,101874.81
2023-09-28T01:47:25.157Z,101873.90
2023-09-28T01:50:11.210Z,101874.98
2023-09-28T01:52:57.201Z,101876.76
2023-09-28T01:55:43.009Z,101875.73
2023-09-28T01:58:30.222Z,101883.31
2023-09-28T02:01:29.431Z,101884.09
2023-09-28T02:04:15.711Z,101883.63
2023-09-28T02:07:01.274Z,101884.64
2023-09-28T02:09:46.806Z,101885.40
2023-09-28T02:12:32.756Z,101884.53
2023-09-28T02:15:18.355Z,101885.59
2023-09-28T02:18:05.011Z,101879.23
2023-09-28T02:20:50.855Z,101878.95
2023-09-28T02:23:36.672Z,101880.63
2023-09-28T02:26:22.233Z,101879.64
2023-09-28T02:29:08.145Z,101877.59
2023-09-28T02:31:53.983Z,101878.76
2023-09-28T02:34:39.815Z,101875.45
2023-09-28T02:37:25.545Z,101872.84
2023-09-28T02:40:12.504Z,101872.36
2023-09-28T02:42:58.480Z,101875.05
2023-09-28T02:45:44.540Z,101876.27
2023-09-28T02:48:30.152Z,101874.98
2023-09-28T02:51:16.668Z,101871.77
2023-09-28T02:54:01.923Z,101866.60
2023-09-28T02:56:48.597Z,101868.91
2023-09-28T02:59:34.192Z,101867.17
2023-09-28T03:02:20.859Z,101868.10
2023-09-28T03:05:08.488Z,101868.31
2023-09-28T03:07:54.276Z,101868.41
2023-09-28T03:10:41.299Z,101865.46
2023-09-28T03:13:26.911Z,101864.67
2023-09-28T03:16:12.953Z,101862.12
2023-09-28T03:18:58.904Z,101863.45
2023-09-28T03:21:44.821Z,101864.26
2023-09-28T03:24:30.185Z,101869.55
2023-09-28T03:27:16.259Z,101872.98
2023-09-28T03:30:05.804Z,101876.58
2023-09-28T03:32:52.657Z,101876.69
2023-09-28T03:35:38.911Z,101875.33
2023-09-28T03:38:26.341Z,101876.34
2023-09-28T03:41:12.085Z,101876.85
2023-09-28T03:43:57.765Z,101873.95
2023-09-28T03:46:43.209Z,101874.81
2023-09-28T03:49:28.955Z,101870.73
2023-09-28T03:52:14.863Z,101866.11
2023-09-28T03:55:00.402Z,101869.54
2023-09-28T03:57:46.929Z,101874.04
2023-09-28T04:00:32.623Z,101875.55
2023-09-28T04:03:18.298Z,101872.23
2023-09-28T04:06:04.042Z,101877.67
2023-09-28T04:08:51.285Z,101882.68
2023-09-28T04:11:37.903Z,101889.12
2023-09-28T04:14:23.744Z,101885.57
2023-09-28T04:17:09.676Z,101886.48
2023-09-28T04:19:55.531Z,101885.84
2023-09-28T04:22:41.846Z,101884.58
2023-09-28T04:25:29.710Z,101883.27
2023-09-28T04:28:15.740Z,101879.64
2023-09-28T04:31:01.149Z,101874.71
2023-09-28T04:33:46.698Z,101874.46
2023-09-28T04:36:33.464Z,101871.41
2023-09-28T04:39:19.215Z,101869.20
2023-09-28T04:42:05.209Z,101870.20
2023-09-28T04:44:51.482Z,101869.92
2023-09-28T04:47:37.604Z,101873.00
2023-09-28T04:50:23.233Z,101871.63
2023-09-28T04:53:16.983Z,101868.49
2023-09-28T04:56:12.717Z,101868.60
2023-09-28T04:59:00.034Z,101871.11
2023-09-28T05:01:45.688Z,101875.03
2023-09-28T05:04:32.954Z,101875.39
2023-09-28T05:07:18.439Z,101872.41
2023-09-28T05:10:06.418Z,101872.10
2023-09-28T05:12:52.373Z,101874.83
2023-09-28T05:15:38.506Z,101868.17
2023-09-28T05:19:07.822Z,101870.39
2023-09-28T05:22:01.933Z,101870.17
2023-09-28T05:24:47.255Z,101867.99
2023-09-28T05:27:34.425Z,101869.24
2023-09-28T05:30:20.673Z,101870.83
2023-09-28T05:33:07.081Z,101873.56
2023-09-28T05:35:53.042Z,101879.74
2023-09-28T05:38:44.783Z,101876.79
2023-09-28T05:41:46.861Z,101878.23
2023-09-28T05:45:28.288Z,101885.86
2023-09-28T05:48:23.889Z,101884.63
2023-09-28T05:51:19.368Z,101882.52
2023-09-28T05:54:26.052Z,101883.45
2023-09-28T05:57:20.498Z,101883.31
2023-09-28T06:00:21.493Z,101884.21
2023-09-28T06:03:11.379Z,101886.88
2023-09-28T06:05:57.179Z,101889.08
2023-09-28T06:08:44.568Z,101884.98
2023-09-28T06:11:30.921Z,101891.83
2023-09-28T06:14:16.610Z,101894.71
2023-09-28T06:17:02.602Z,101892.31
2023-09-28T06:19:57.937Z,101893.83
2023-09-28T06:22:49.961Z,101894.11
2023-09-28T06:25:35.804Z,101894.61
2023-09-28T06:28:24.619Z,101894.39
2023-09-28T06:31:10.896Z,101900.55
2023-09-28T06:33:57.022Z,101899.54
2023-09-28T06:36:43.329Z,101905.73
2023-09-28T06:39:29.584Z,101905.10
2023-09-28T06:42:26.513Z,101910.24
2023-09-28T06:45:20.550Z,101907.65
2023-09-28T06:48:20.015Z,101907.36
2023-09-28T06:51:07.812Z,101912.23
2023-09-28T06:53:53.725Z,101915.71
2023-09-28T06:56:39.438Z,101916.64
2023-09-28T06:59:33.500Z,101914.86
2023-09-28T07:02:19.983Z,101919.28
2023-09-28T07:05:09.700Z,101921.60
2023-09-28T07:07:57.152Z,101918.58
2023-09-28T07:10:45.484Z,101922.65
2023-09-28T07:13:30.852Z,101921.61
2023-09-28T07:16:17.369Z,101922.16
2023-09-28T07:19:05.946Z,101921.98
2023-09-28T07:22:02.219Z,101924.86
2023-09-28T07:24:47.652Z,101924.88
2023-09-28T07:27:33.332Z,101929.85
2023-09-28T07:30:46.260Z,101932.31
2023-09-28T07:33:33.221Z,101934.25
2023-09-28T07:36:20.225Z,101935.69
2023-09-28T07:39:06.199Z,101932.59
2023-09-28T07:41:52.271Z,101935.08
2023-09-28T07:44:40.836Z,101934.19
2023-09-28T07:47:26.661Z,101942.60
2023-09-28T07:50:15.236Z,101936.25
2023-09-28T07:53:31.314Z,101939.14
2023-09-28T08:04:09.564Z,101943.19
2023-09-28T08:06:55.884Z,101943.14
2023-09-28T08:09:43.070Z,101941.38
2023-09-28T08:12:28.885Z,101942.55
2023-09-28T08:15:26.977Z,101942.73
2023-09-28T08:18:22.157Z,101939.50
2023-09-28T08:21:11.152Z,101942.33
2023-09-28T08:23:57.159Z,101942.40
2023-09-28T08:26:43.121Z,101940.94
2023-09-28T08:29:29.070Z,101944.38
2023-09-28T08:32:14.787Z,101937.09
2023-09-28T08:39:04.380Z,101938.52
2023-09-28T08:46:13.603Z,101937.88
2023-09-28T08:49:09.496Z,101935.38
2023-09-28T08:51:57.632Z,101938.69
2023-09-28T08:54:51.514Z,101935.80
2023-09-28T08:57:42.714Z,101932.04
2023-09-28T09:00:41.906Z,101930.50
2023-09-28T09:04:15.967Z,101934.06
2023-09-28T09:07:05.051Z,101934.82
2023-09-28T09:10:26.380Z,101937.58
2023-09-28T09:13:17.348Z,101932.45
2023-09-28T09:16:03.723Z,101935.77
2023-09-28T09:18:50.429Z,101934.38
2023-09-28T09:21:41.587Z,101933.95
2023-09-28T09:24:27.290Z,101932.98
2023-09-28T09:27:12.925Z,101937.04
2023-09-28T09:30:08.775Z,101935.41
2023-09-28T09:32:59.027Z,101940.18
2023-09-28T09:35:44.945Z,101943.88
2023-09-28T09:38:37.571Z,101942.48
2023-09-28T09:41:46.099Z,101941.70
2023-09-28T09:44:35.396Z,101946.41
2023-09-28T09:47:21.467Z,101943.66
2023-09-28T09:50:08.399Z,101937.39
2023-09-28T09:52:56.957Z,101933.96
2023-09-28T09:55:47.627Z,101933.67
2023-09-28T09:58:42.784Z,101934.88
2023-09-28T10:01:29.638Z,101931.55
2023-09-28T10:04:17.329Z,101934.76
2023-09-28T10:07:05.243Z,101934.10
2023-09-28T10:09:52.376Z,101935.25
2023-09-28T10:12:39.079Z,101930.35
2023-09-28T10:15:26.792Z,101932.16
2023-09-28T10:18:14.641Z,101928.04
2023-09-28T10:21:03.262Z,101930.78
2023-09-28T10:23:48.893Z,101931.06
2023-09-28T10:26:35.994Z,101929.78
2023-09-28T10:29:28.853Z,101929.83
2023-09-28T10:32:30.754Z,101926.66
2023-09-28T10:35:27.514Z,101929.84
2023-09-28T10:38:22.172Z,101928.67
2023-09-28T10:45:04.526Z,101927.39
2023-09-28T10:47:59.190Z,101919.60
2023-09-28T10:50:47.194Z,101919.45
2023-09-28T10:53:33.110Z,101917.27
2023-09-28T10:56:18.846Z,101909.34
2023-09-28T10:59:07.338Z,101907.52
2023-09-28T11:01:53.073Z,101905.75
2023-09-28T11:04:50.950Z,101901.84
2023-09-28T11:07:38.958Z,101898.70
2023-09-28T11:10:25.816Z,101895.75
2023-09-28T11:13:16.402Z,101891.06
2023-09-28T11:16:02.396Z,101883.27
2023-09-28T11:18:50.349Z,101880.73
2023-09-28T11:21:35.874Z,101877.05
2023-09-28T11:24:23.702Z,101878.70
2023-09-28T11:27:09.337Z,101875.36
2023-09-28T11:29:58.724Z,101870.91
2023-09-28T11:32:52.551Z,101864.05
2023-09-28T11:35:39.276Z,101869.48
2023-09-28T11:38:24.847Z,101866.73
2023-09-28T11:41:14.417Z,101859.48
2023-09-28T11:44:00.269Z,101861.84
2023-09-28T11:46:47.395Z,101861.05
2023-09-28T11:49:38.364Z,101863.45
2023-09-28T11:55:40.565Z,101863.61
2023-09-28T11:58:29.092Z,101860.56
2023-09-28T12:01:15.120Z,101859.06
2023-09-28T12:04:00.822Z,101861.52
2023-09-28T12:06:46.768Z,101863.19
2023-09-28T12:09:34.775Z,101859.46
2023-09-28T12:12:21.041Z,101860.91
2023-09-28T12:15:11.506Z,101854.95
2023-09-28T12:17:56.950Z,101853.55
2023-09-28T12:20:44.624Z,101854.90
2023-09-28T12:23:30.954Z,101854.08
2023-09-28T12:26:17.065Z,101846.91
2023-09-28T12:29:02.773Z,101844.94
2023-09-28T12:31:48.600Z,101844.20
2023-09-28T12:34:34.194Z,101836.88
2023-09-28T12:37:19.964Z,101833.70
2023-09-28T12:40:15.186Z,101836.52
2023-09-28T12:43:13.563Z,101833.31
2023-09-28T12:45:59.563Z,101831.16
2023-09-28T12:48:45.223Z,101832.64
2023-09-28T12:51:31.415Z,101830.55
2023-09-28T12:54:20.865Z,101824.80
2023-09-28T12:57:08.390Z,101829.66
2023-09-28T12:59:54.026Z,101830.22
2023-09-28T13:02:40.163Z,101828.31
2023-09-28T13:05:26.480Z,101825.77
2023-09-28T13:08:14.701Z,101824.04
2023-09-28T13:11:00.891Z,101818.48
2023-09-28T13:13:47.271Z,101815.58
2023-09-28T13:16:34.176Z,101818.37
2023-09-28T13:19:20.265Z,101819.79
2023-09-28T13:22:05.927Z,101816.70
2023-09-28T13:24:53.791Z,101819.04
2023-09-28T13:27:39.848Z,101817.00
2023-09-28T13:30:29.774Z,101819.77
2023-09-28T13:33:15.492Z,101818.38
2023-09-28T13:36:06.399Z,101818.20
2023-09-28T13:38:52.210Z,101819.63
2023-09-28T13:41:39.729Z,101816.09
2023-09-28T13:44:26.203Z,101815.66
2023-09-28T13:47:12.257Z,101817.40
2023-09-28T13:49:57.679Z,101812.37
2023-09-28T13:52:46.508Z,101819.61
2023-09-28T13:55:34.092Z,101824.59
2023-09-28T13:58:20.955Z,101827.10
2023-09-28T14:01:10.974Z,101828.64
2023-09-28T14:03:56.732Z,101830.02
2023-09-28T14:06:42.834Z,101830.48
2023-09-28T14:09:31.785Z,101830.44
2023-09-28T14:12:17.460Z,101830.46
2023-09-28T14:15:07.575Z,101828.38
2023-09-28T14:17:56.350Z,101829.58
2023-09-28T14:20:42.110Z,101826.45
2023-09-28T14:23:27.789Z,101822.42
2023-09-28T14:26:13.194Z,101820.02
2023-09-28T14:29:00.324Z,101813.96
2023-09-28T14:31:45.944Z,101812.85
2023-09-28T14:34:31.435Z,101816.70
2023-09-28T14:37:18.681Z,101817.66
2023-09-28T14:40:15.085Z,101815.02
2023-09-28T14:43:03.981Z,101812.59
2023-09-28T14:45:49.688Z,101810.44
2023-09-28T14:48:35.705Z,101810.78
2023-09-28T14:51:21.782Z,101809.92
2023-09-28T14:54:07.440Z,101813.14
2023-09-28T14:56:53.067Z,101813.60
2023-09-28T14:59:39.098Z,101812.05
2023-09-28T15:02:25.127Z,101812.93
2023-09-28T15:05:11.504Z,101810.67
2023-09-28T15:07:57.222Z,101809.92
2023-09-28T15:10:43.402Z,101808.60
2023-09-28T15:13:29.161Z,101807.39
2023-09-28T15:16:15.888Z,101809.64
2023-09-28T15:19:01.631Z,101804.48
2023-09-28T15:21:47.532Z,101800.37
2023-09-28T15:24:34.047Z,101799.73
2023-09-28T15:27:19.801Z,101799.73
2023-09-28T15:30:05.876Z,101800.30
2023-09-28T15:32:51.575Z,101803.39
2023-09-28T15:35:38.172Z,101803.48
2023-09-28T15:38:24.834Z,101800.94
2023-09-28T15:41:33.766Z,101800.45
2023-09-28T15:44:20.108Z,101798.52
2023-09-28T15:47:06.086Z,101798.42
2023-09-28T15:49:53.718Z,101794.45
2023-09-28T15:52:39.693Z,101788.92
2023-09-28T15:55:25.536Z,101789.25
2023-09-28T15:58:10.777Z,101786.54
2023-09-28T16:00:56.427Z,101789.37
2023-09-28T16:03:42.632Z,101789.97
2023-09-28T16:06:28.422Z,101789.27
2023-09-28T16:09:15.010Z,101785.58
2023-09-28T16:12:01.396Z,101785.09
2023-09-28T16:15:08.672Z,101783.12
2023-09-28T16:18:26.229Z,101782.40
2023-09-28T16:21:14.727Z,101782.57
2023-09-28T16:24:00.321Z,101780.07
2023-09-28T16:26:47.418Z,101774.29
2023-09-28T16:29:36.443Z,101768.55
2023-09-28T16:32:22.741Z,101771.04
2023-09-28T16:35:56.648Z,101767.50
2023-09-28T16:38:43.818Z,101766.60
2023-09-28T16:41:43.425Z,101767.02
2023-09-28T16:52:25.340Z,101758.86
2023-09-28T16:59:08.781Z,101754.04
2023-09-28T17:01:56.487Z,101755.98
2023-09-28T17:04:42.245Z,101749.91
2023-09-28T17:07:30.373Z,101749.73
2023-09-28T17:10:24.940Z,101752.38
2023-09-28T17:17:15.409Z,101749.77
2023-09-28T17:20:00.858Z,101748.69
2023-09-28T17:22:46.782Z,101748.27
2023-09-28T17:25:35.142Z,101746.40
2023-09-28T17:28:21.574Z,101746.26
2023-09-28T17:31:07.876Z,101745.02
2023-09-28T17:33:53.690Z,101745.31
2023-09-28T17:36:55.911Z,101747.27
2023-09-28T17:39:56.924Z,101742.52
2023-09-28T17:43:22.521Z,101740.48
2023-09-28T17:53:55.538Z,101749.84
2023-09-28T17:56:43.682Z,101752.20
2023-09-28T17:59:54.292Z,101752.29
2023-09-28T18:08:08.001Z,101755.34
2023-09-28T18:11:14.822Z,101757.11
2023-09-28T18:18:22.332Z,101764.02
2023-09-28T18:25:40.035Z,101770.05
2023-09-28T18:28:36.048Z,101769.27
2023-09-28T18:34:36.032Z,101766.69
2023-09-28T18:37:22.256Z,101773.05
2023-09-28T18:40:08.900Z,101770.89
2023-09-28T18:43:17.901Z,101770.58
2023-09-28T18:46:04.290Z,101766.50
2023-09-28T18:48:50.716Z,101765.51
2023-09-28T18:51:36.844Z,101762.18
2023-09-28T18:54:23.033Z,101760.48
2023-09-28T18:57:08.837Z,101758.44
2023-09-28T18:59:54.388Z,101759.12
2023-09-28T19:02:40.472Z,101764.11
2023-09-28T19:05:26.353Z,101762.45
2023-09-28T19:08:12.028Z,101761.30
2023-09-28T19:10:58.319Z,101760.19
2023-09-28T19:13:45.337Z,101755.50
2023-09-28T19:16:31.064Z,101756.92
2023-09-28T19:19:42.006Z,101758.88
2023-09-28T19:22:29.007Z,101761.20
2023-09-28T19:25:16.248Z,101765.41
2023-09-28T19:28:01.854Z,101764.65
2023-09-28T19:30:47.971Z,101768.65
2023-09-28T19:33:33.880Z,101771.05
2023-09-28T19:36:19.678Z,101768.82
2023-09-28T19:39:05.603Z,101773.23
2023-09-28T19:41:52.032Z,101769.65
2023-09-28T19:44:39.250Z,101771.35
2023-09-28T19:47:24.896Z,101771.41
2023-09-28T19:50:10.603Z,101770.94
2023-09-28T19:52:56.129Z,101773.15
2023-09-28T19:55:41.973Z,101775.31
2023-09-28T19:58:27.713Z,101771.23
2023-09-28T20:01:13.720Z,101765.20
2023-09-28T20:03:59.746Z,101766.34
2023-09-28T20:06:45.534Z,101762.89
2023-09-28T20:09:32.693Z,101761.17
2023-09-28T20:12:19.144Z,101757.34
2023-09-28T20:15:07.274Z,101758.81
2023-09-28T20:17:54.215Z,101760.62
2023-09-28T20:20:40.088Z,101761.52
2023-09-28T20:23:25.741Z,101764.92
2023-09-28T20:26:11.406Z,101765.42
2023-09-28T20:28:56.874Z,101760.98
2023-09-28T20:31:42.377Z,101759.93
2023-09-28T20:34:28.464Z,101759.41
2023-09-28T20:37:14.084Z,101755.98
2023-09-28T20:39:59.960Z,101756.86
2023-09-28T20:42:45.864Z,101759.65
2023-09-28T20:45:32.284Z,101759.17
2023-09-28T20:48:18.351Z,101758.48
2023-09-28T20:51:04.211Z,101754.21
2023-09-28T20:53:49.672Z,101750.70
2023-09-28T20:56:35.488Z,101754.38
2023-09-28T20:59:20.966Z,101752.14
2023-09-28T21:02:07.331Z,101754.00
2023-09-28T21:04:52.980Z,101752.34
2023-09-28T21:07:44.807Z,101749.59
2023-09-28T21:10:31.426Z,101746.28
2023-09-28T21:13:17.063Z,101746.17
2023-09-28T21:16:03.245Z,101746.81
2023-09-28T21:18:48.932Z,101743.88
2023-09-28T21:21:34.808Z,101738.77
2023-09-28T21:24:25.184Z,101736.73
2023-09-28T21:27:11.386Z,101737.36
2023-09-28T21:29:57.552Z,101734.54
2023-09-28T21:32:44.644Z,101736.55
2023-09-28T21:35:30.520Z,101738.78
2023-09-28T21:38:16.574Z,101738.73
2023-09-28T21:41:10.822Z,101738.11
2023-09-28T21:43:56.442Z,101737.98
2023-09-28T21:46:42.120Z,101739.47
2023-09-28T21:49:27.869Z,101741.84
2023-09-28T21:52:13.593Z,101738.83
2023-09-28T21:54:59.137Z,101743.10
2023-09-28T21:57:44.736Z,101744.27
2023-09-28T22:00:35.258Z,101744.50
2023-09-28T22:03:21.074Z,101744.59
2023-09-28T22:06:07.613Z,101745.79
2023-09-28T22:08:53.288Z,101747.78
2023-09-28T22:11:38.973Z,101750.13
2023-09-28T22:14:24.921Z,101750.52
2023-09-28T22:17:10.518Z,101752.75
2023-09-28T22:19:56.288Z,101756.08
2023-09-28T22:22:43.713Z,101751.83
2023-09-28T22:25:29.434Z,101749.94
2023-09-28T22:28:15.428Z,101753.11
2023-09-28T22:31:38.700Z,101753.30
2023-09-28T22:38:29.504Z,101748.52
2023-09-28T22:41:27.958Z,101750.73
2023-09-28T22:48:33.934Z,101745.38
2023-09-28T22:51:37.834Z,101745.89
2023-09-28T22:54:23.402Z,101743.54
2023-09-28T22:57:24.127Z,101751.00
2023-09-28T23:04:47.071Z,101757.47
2023-09-28T23:08:11.528Z,101760.65
2023-09-28T23:11:02.479Z,101756.92
2023-09-28T23:13:48.059Z,101757.98
2023-09-28T23:16:33.689Z,101755.39
2023-09-28T23:19:19.468Z,101756.77
2023-09-28T23:22:05.684Z,101759.93
2023-09-28T23:24:51.687Z,101761.33
2023-09-28T23:27:49.058Z,101760.50
2023-09-28T23:30:38.610Z,101754.65
2023-09-28T23:33:24.458Z,101758.13
2023-09-28T23:36:11.314Z,101757.85
2023-09-28T23:38:58.175Z,101755.80
2023-09-28T23:41:44.979Z,101753.94
2023-09-28T23:44:32.174Z,101753.70
2023-09-28T23:47:17.848Z,101752.70
2023-09-28T23:50:07.041Z,101747.27
2023-09-28T23:52:52.938Z,101746.09
2023-09-28T23:55:47.497Z,101745.49
2023-09-28T23:58:33.390Z,101747.91
